Weather 🌤️

Recent data

Temperatures

Wind

Pressure

Humidity & Precipitation

Last data
obsTime qcStatus tempAvg heatindexAvg windspeedAvg windgustAvg winddirAvg pressureAvg humidityAvg precipRate precipTotal
2026-09-02 02:34:55 0 21.4 21 2.1 4 226 999.83 52.8 0 0
2026-09-02 02:29:53 0 21.5 21.1 2.1 4 236 1000.17 52.8 0 0
2026-09-02 02:24:53 0 21.5 21.1 0.3 4 236 1000 52.2 0 0
2026-09-02 02:19:53 0 21.5 21.1 0 4 192 1000 52 0 0
2026-09-02 02:14:53 0 21.6 21.1 0 4 192 1000 52 0 0
2026-09-02 02:09:53 0 21.6 21.1 0 4 215 999.83 52 0 0
2026-09-02 02:04:53 0 21.7 21.2 0 6 219 1000.17 52 0 0
2026-09-02 01:59:56 0 21.7 21.2 0.9 6.1 220 1000.17 52 0 0
2026-09-02 01:54:56 0 21.7 21.3 1.2 6.1 218 1000 52 0 0
2026-09-02 01:49:56 0 21.8 21.3 1 6.1 212 1000 52 0 0
2026-09-02 01:44:54 0 21.8 21.4 1.1 6.1 209 1000 52 0 0
2026-09-02 01:39:57 0 21.9 21.5 3 6.1 231 1000.17 52 0 0

Hourly data

Temperatures

Wind

Pressure

Humidity & Precipitation

Last data
obsTime qcStatus tempAvg heatindexAvg windspeedAvg windgustAvg winddirAvg pressureAvg humidityAvg precipRate precipTotal
2026-09-02 01:59:51 0 22 21.6 1.6 6.2 222 1000 51.6 0 0
2026-09-02 00:59:56 0 22.6 22.2 2.1 7.6 229 1000 49.8 0 0
2026-09-01 23:59:56 0 23.1 22.7 3.7 7 227 999.66 47.6 0 0
2026-09-01 22:59:51 0 23.8 23.5 2.6 6.1 227 999.66 46 0 0
2026-09-01 21:59:56 0 24.6 24.2 2.1 5.3 227 999.32 43.3 0 0
2026-09-01 20:59:56 0 25.3 24.9 1.1 6.3 236 998.65 41.4 0 0
2026-09-01 19:59:53 1 25.9 25.7 3.4 10.8 288 998.31 43.8 0 0
2026-09-01 18:59:55 1 26.2 26.1 3.1 10.1 251 998.31 46.1 0 0
2026-09-01 17:59:54 1 26.1 26 4.1 11.4 249 998.65 46.9 0 0
2026-09-01 16:59:53 1 25.8 25.7 3.8 10.7 257 998.99 48.7 0 0
2026-09-01 15:59:56 1 25.2 25.1 3.6 10.9 264 999.32 50.3 0 0
2026-09-01 14:59:55 1 24.7 24.5 3.7 8.8 251 1000 52.1 0 0
2026-09-01 13:59:55 1 24.2 24 3.2 7.5 213 1000.34 53.5 0 0
2026-09-01 12:59:55 1 23.4 23.3 3.1 7.2 201 1001.02 56 0 0
2026-09-01 11:59:55 1 22 21.8 3 9.6 218 1001.36 59.9 0 0
2026-09-01 10:59:55 1 19.8 19.8 2.2 5.8 201 1001.53 63.6 0 0
2026-09-01 09:59:55 1 18.3 18.3 1.1 3.9 189 1001.53 66.2 0 0
2026-09-01 08:59:56 1 17.4 17.4 0.4 2.9 184 1001.69 67 0 0
2026-09-01 07:59:56 0 17.2 17.2 0.5 2.8 174 1001.36 66.7 0 0
2026-09-01 06:59:56 0 18 18 0.2 2.8 214 1001.02 65.6 0 0
2026-09-01 05:59:56 0 18.6 18.6 0.4 2.8 177 1001.02 64.1 0 0
2026-09-01 04:59:54 0 19.4 19.4 0.4 3.4 226 1001.36 62.9 0 0
2026-09-01 03:59:52 0 19.8 19.8 1.1 5.6 231 1001.36 61.8 0 0
2026-09-01 02:59:56 0 20.2 20.2 2.1 4 226 1001.36 60.5 0 0